Ana Sayfa
METAR-TAF:

METAR-TAF

Havaalanları :

Tan Son Nhat Uluslararası Havalimanı

Ho Chi Minh Kenti, Vietnam

Enlem: 10-49N, Boylam: 106-40E, yükseklik: 19 m

Güncel hava durumu gözlemi

Rapor saat 23:00 UTC de 21 dakika önce yapıldı.
Rüzgar doğu/kuzeydoğudan 2 kt
Sıcaklık 25°C
Nem 94%
Basınç 1011 hPa
Görüş mesafesi: 7000 m
2000 ft yükseklikte az bulutlu

METAR: VVTS 202300Z 07002KT 7000 FEW020 25/24 Q1011 NOSIG

Saat: 06:21 (23:21 UTC)

Tahmin

Rapor saat 17:00 UTC de 6 saat ve 21 dakika önce yapıldı.
Ayın 20'si saat 18 UTC'den ayın 21'si saat 24 UTC'ye kadar geçerli Tahmin
Rüzgar güneydoğudan 8 kt
Görüş mesafesi 10 km veya daha fazla
1700 ft yükseklikte az bulutlu
Geçici
ayın 21'si saat 07 UTC'den ayın 21'si saat 11 UTC'ye kadar
1500 ft yükseklikte parçalı bulutlu
1700 ft yükseklikte az bulutlu, Kümülonimbus.
gök gürültülü fırtına

TAF: VVTS 201700Z 2018/2124 13008KT 9999 FEW017 TEMPO 2107/2111 TS SCT015 FEW017CB

4.000'den fazla havaalanı için hava durumu gözlemleri ve tahminleri (METAR ve TAF raporları).

Kullanılabilir istasyonlar harita üzerinde sarı ve kırmızı noktalarla gösterilir.

İstasyonun adını görmek için fareyi noktanın üzerinde gezdirin.

Sonrasında hava gözlem ve tahminlerini görmek için tıklayın.

Haritayı değiştirmek için: yaklaştırmak için siyah artı işaretli yeşil düğmeye ve uzaklaştırmak için de eksi işaretli düğmeye hızla tıklayın; bitişik haritalar için yeşil okları kullanın.


METAR-TAF: